sensor_id;sensor_type;location;lat;lon;timestamp;P1;durP1;ratioP1;P2;durP2;ratioP2
27357;SDS011;14831;50.474;7.616;2022-10-31T00:04:21;2.1;;;1.9;;
27357;SDS011;14831;50.474;7.616;2022-10-31T00:09:21;2.1;;;1.9;;
27357;SDS011;14831;50.474;7.616;2022-10-31T00:14:21;2.1;;;1.9;;
27357;SDS011;14831;50.474;7.616;2022-10-31T00:19:21;2.0;;;1.9;;
27357;SDS011;14831;50.474;7.616;2022-10-31T00:24:21;2.0;;;1.9;;
27357;SDS011;14831;50.474;7.616;2022-10-31T00:29:21;2.0;;;1.9;;
27357;SDS011;14831;50.474;7.616;2022-10-31T00:34:21;2.0;;;1.9;;
27357;SDS011;14831;50.474;7.616;2022-10-31T00:39:21;2.0;;;1.9;;
27357;SDS011;14831;50.474;7.616;2022-10-31T00:44:21;2.0;;;1.9;;
27357;SDS011;14831;50.474;7.616;2022-10-31T00:49:21;2.2;;;2.0;;
27357;SDS011;14831;50.474;7.616;2022-10-31T00:54:21;2.2;;;2.0;;
27357;SDS011;14831;50.474;7.616;2022-10-31T00:59:21;2.2;;;2.0;;
27357;SDS011;14831;50.474;7.616;2022-10-31T01:04:21;2.2;;;2.0;;
27357;SDS011;14831;50.474;7.616;2022-10-31T01:09:21;2.2;;;2.0;;
27357;SDS011;14831;50.474;7.616;2022-10-31T01:14:21;2.2;;;2.0;;
27357;SDS011;14831;50.474;7.616;2022-10-31T01:19:21;2.1;;;1.9;;
27357;SDS011;14831;50.474;7.616;2022-10-31T01:24:21;2.1;;;1.9;;
27357;SDS011;14831;50.474;7.616;2022-10-31T01:29:21;2.1;;;1.9;;
27357;SDS011;14831;50.474;7.616;2022-10-31T01:34:21;2.1;;;1.9;;
27357;SDS011;14831;50.474;7.616;2022-10-31T01:39:21;2.1;;;1.9;;
27357;SDS011;14831;50.474;7.616;2022-10-31T01:44:57;2.1;;;1.9;;
27357;SDS011;14831;50.474;7.616;2022-10-31T01:49:25;2.0;;;1.9;;
27357;SDS011;14831;50.474;7.616;2022-10-31T01:54:25;2.0;;;1.9;;
27357;SDS011;14831;50.474;7.616;2022-10-31T01:59:22;2.0;;;1.9;;
27357;SDS011;14831;50.474;7.616;2022-10-31T02:04:23;2.0;;;1.9;;
27357;SDS011;14831;50.474;7.616;2022-10-31T02:09:22;2.0;;;1.9;;
27357;SDS011;14831;50.474;7.616;2022-10-31T02:14:22;2.0;;;1.9;;
27357;SDS011;14831;50.474;7.616;2022-10-31T02:19:29;2.0;;;1.9;;
27357;SDS011;14831;50.474;7.616;2022-10-31T02:24:34;2.0;;;1.9;;
27357;SDS011;14831;50.474;7.616;2022-10-31T02:29:45;2.0;;;1.9;;
27357;SDS011;14831;50.474;7.616;2022-10-31T02:34:25;2.0;;;1.9;;
27357;SDS011;14831;50.474;7.616;2022-10-31T02:39:25;2.0;;;1.9;;
27357;SDS011;14831;50.474;7.616;2022-10-31T02:44:30;2.0;;;1.9;;
27357;SDS011;14831;50.474;7.616;2022-10-31T02:49:26;2.4;;;2.2;;
27357;SDS011;14831;50.474;7.616;2022-10-31T02:54:24;2.4;;;2.2;;
27357;SDS011;14831;50.474;7.616;2022-10-31T02:59:22;2.4;;;2.2;;
27357;SDS011;14831;50.474;7.616;2022-10-31T03:04:31;2.4;;;2.2;;
27357;SDS011;14831;50.474;7.616;2022-10-31T03:09:25;2.4;;;2.2;;
27357;SDS011;14831;50.474;7.616;2022-10-31T03:14:26;2.4;;;2.2;;
27357;SDS011;14831;50.474;7.616;2022-10-31T03:19:26;2.0;;;1.9;;
27357;SDS011;14831;50.474;7.616;2022-10-31T03:24:24;2.0;;;1.9;;
27357;SDS011;14831;50.474;7.616;2022-10-31T03:29:25;2.0;;;1.9;;
27357;SDS011;14831;50.474;7.616;2022-10-31T03:34:21;2.0;;;1.9;;
27357;SDS011;14831;50.474;7.616;2022-10-31T03:39:22;2.0;;;1.9;;
27357;SDS011;14831;50.474;7.616;2022-10-31T03:44:22;2.0;;;1.9;;
27357;SDS011;14831;50.474;7.616;2022-10-31T03:49:21;1.8;;;1.7;;
27357;SDS011;14831;50.474;7.616;2022-10-31T03:54:26;1.8;;;1.7;;
27357;SDS011;14831;50.474;7.616;2022-10-31T03:59:25;1.8;;;1.7;;
27357;SDS011;14831;50.474;7.616;2022-10-31T04:04:21;1.8;;;1.7;;
27357;SDS011;14831;50.474;7.616;2022-10-31T04:09:22;1.8;;;1.7;;
27357;SDS011;14831;50.474;7.616;2022-10-31T04:14:24;1.8;;;1.7;;
27357;SDS011;14831;50.474;7.616;2022-10-31T04:19:21;2.0;;;1.8;;
27357;SDS011;14831;50.474;7.616;2022-10-31T04:24:21;2.0;;;1.8;;
27357;SDS011;14831;50.474;7.616;2022-10-31T04:29:21;2.0;;;1.8;;
27357;SDS011;14831;50.474;7.616;2022-10-31T04:34:21;2.0;;;1.8;;
27357;SDS011;14831;50.474;7.616;2022-10-31T04:39:21;2.0;;;1.8;;
27357;SDS011;14831;50.474;7.616;2022-10-31T04:44:21;2.0;;;1.8;;
27357;SDS011;14831;50.474;7.616;2022-10-31T04:49:21;2.0;;;1.8;;
27357;SDS011;14831;50.474;7.616;2022-10-31T04:54:21;2.0;;;1.8;;
27357;SDS011;14831;50.474;7.616;2022-10-31T04:59:21;2.0;;;1.8;;
27357;SDS011;14831;50.474;7.616;2022-10-31T05:04:21;2.0;;;1.8;;
27357;SDS011;14831;50.474;7.616;2022-10-31T05:09:22;2.0;;;1.8;;
27357;SDS011;14831;50.474;7.616;2022-10-31T05:14:21;2.0;;;1.8;;
27357;SDS011;14831;50.474;7.616;2022-10-31T05:19:21;1.9;;;1.8;;
27357;SDS011;14831;50.474;7.616;2022-10-31T05:24:22;1.9;;;1.8;;
27357;SDS011;14831;50.474;7.616;2022-10-31T05:29:21;1.9;;;1.8;;
27357;SDS011;14831;50.474;7.616;2022-10-31T05:34:21;1.9;;;1.8;;
27357;SDS011;14831;50.474;7.616;2022-10-31T05:39:21;1.9;;;1.8;;
27357;SDS011;14831;50.474;7.616;2022-10-31T05:44:21;1.9;;;1.8;;
27357;SDS011;14831;50.474;7.616;2022-10-31T05:49:21;1.9;;;1.8;;
27357;SDS011;14831;50.474;7.616;2022-10-31T05:54:21;1.9;;;1.8;;
27357;SDS011;14831;50.474;7.616;2022-10-31T05:59:21;1.9;;;1.8;;
27357;SDS011;14831;50.474;7.616;2022-10-31T06:04:21;1.9;;;1.8;;
27357;SDS011;14831;50.474;7.616;2022-10-31T06:09:21;1.9;;;1.8;;
27357;SDS011;14831;50.474;7.616;2022-10-31T06:14:21;1.9;;;1.8;;
27357;SDS011;14831;50.474;7.616;2022-10-31T06:19:21;1.7;;;1.6;;
27357;SDS011;14831;50.474;7.616;2022-10-31T06:24:21;1.7;;;1.6;;
27357;SDS011;14831;50.474;7.616;2022-10-31T06:29:21;1.7;;;1.6;;
27357;SDS011;14831;50.474;7.616;2022-10-31T06:34:21;1.7;;;1.6;;
27357;SDS011;14831;50.474;7.616;2022-10-31T06:39:21;1.7;;;1.6;;
27357;SDS011;14831;50.474;7.616;2022-10-31T06:44:21;1.7;;;1.6;;
27357;SDS011;14831;50.474;7.616;2022-10-31T06:49:21;2.0;;;1.7;;
27357;SDS011;14831;50.474;7.616;2022-10-31T06:54:21;2.0;;;1.7;;
27357;SDS011;14831;50.474;7.616;2022-10-31T06:59:21;2.0;;;1.7;;
27357;SDS011;14831;50.474;7.616;2022-10-31T07:04:21;2.0;;;1.7;;
27357;SDS011;14831;50.474;7.616;2022-10-31T07:09:21;2.0;;;1.7;;
27357;SDS011;14831;50.474;7.616;2022-10-31T07:14:21;2.0;;;1.7;;
27357;SDS011;14831;50.474;7.616;2022-10-31T07:19:21;2.1;;;1.9;;
27357;SDS011;14831;50.474;7.616;2022-10-31T07:24:21;2.1;;;1.9;;
27357;SDS011;14831;50.474;7.616;2022-10-31T07:29:21;2.1;;;1.9;;
27357;SDS011;14831;50.474;7.616;2022-10-31T07:34:21;2.1;;;1.9;;
27357;SDS011;14831;50.474;7.616;2022-10-31T07:39:21;2.1;;;1.9;;
27357;SDS011;14831;50.474;7.616;2022-10-31T07:44:21;2.1;;;1.9;;
27357;SDS011;14831;50.474;7.616;2022-10-31T07:49:21;3.0;;;2.3;;
27357;SDS011;14831;50.474;7.616;2022-10-31T07:54:21;3.0;;;2.3;;
27357;SDS011;14831;50.474;7.616;2022-10-31T07:59:21;3.0;;;2.3;;
27357;SDS011;14831;50.474;7.616;2022-10-31T08:04:21;3.0;;;2.3;;
27357;SDS011;14831;50.474;7.616;2022-10-31T08:09:21;3.0;;;2.3;;
27357;SDS011;14831;50.474;7.616;2022-10-31T08:14:21;3.0;;;2.3;;
27357;SDS011;14831;50.474;7.616;2022-10-31T08:19:21;3.1;;;2.5;;
27357;SDS011;14831;50.474;7.616;2022-10-31T08:24:21;3.1;;;2.5;;
27357;SDS011;14831;50.474;7.616;2022-10-31T08:29:21;3.1;;;2.5;;
27357;SDS011;14831;50.474;7.616;2022-10-31T08:34:21;3.1;;;2.5;;
27357;SDS011;14831;50.474;7.616;2022-10-31T08:39:21;3.1;;;2.5;;
27357;SDS011;14831;50.474;7.616;2022-10-31T08:44:21;3.1;;;2.5;;
27357;SDS011;14831;50.474;7.616;2022-10-31T08:49:21;3.1;;;2.8;;
27357;SDS011;14831;50.474;7.616;2022-10-31T08:54:21;3.1;;;2.8;;
27357;SDS011;14831;50.474;7.616;2022-10-31T08:59:21;3.1;;;2.8;;
27357;SDS011;14831;50.474;7.616;2022-10-31T09:04:21;3.1;;;2.8;;
27357;SDS011;14831;50.474;7.616;2022-10-31T09:09:21;3.1;;;2.8;;
27357;SDS011;14831;50.474;7.616;2022-10-31T09:14:21;3.1;;;2.8;;
27357;SDS011;14831;50.474;7.616;2022-10-31T09:19:21;4.0;;;2.5;;
27357;SDS011;14831;50.474;7.616;2022-10-31T09:24:21;4.0;;;2.5;;
27357;SDS011;14831;50.474;7.616;2022-10-31T09:29:21;4.0;;;2.5;;
27357;SDS011;14831;50.474;7.616;2022-10-31T09:34:21;4.0;;;2.5;;
27357;SDS011;14831;50.474;7.616;2022-10-31T09:39:21;4.0;;;2.5;;
27357;SDS011;14831;50.474;7.616;2022-10-31T09:44:26;4.0;;;2.5;;
27357;SDS011;14831;50.474;7.616;2022-10-31T09:49:34;3.8;;;2.5;;
27357;SDS011;14831;50.474;7.616;2022-10-31T09:54:26;3.8;;;2.5;;
27357;SDS011;14831;50.474;7.616;2022-10-31T09:59:26;3.8;;;2.5;;
27357;SDS011;14831;50.474;7.616;2022-10-31T10:04:31;3.8;;;2.5;;
27357;SDS011;14831;50.474;7.616;2022-10-31T10:09:25;3.8;;;2.5;;
27357;SDS011;14831;50.474;7.616;2022-10-31T10:14:31;3.8;;;2.5;;
27357;SDS011;14831;50.474;7.616;2022-10-31T10:19:30;2.9;;;2.6;;
27357;SDS011;14831;50.474;7.616;2022-10-31T10:24:28;2.9;;;2.6;;
27357;SDS011;14831;50.474;7.616;2022-10-31T10:29:30;2.9;;;2.6;;
27357;SDS011;14831;50.474;7.616;2022-10-31T10:34:24;2.9;;;2.6;;
27357;SDS011;14831;50.474;7.616;2022-10-31T10:39:25;2.9;;;2.6;;
27357;SDS011;14831;50.474;7.616;2022-10-31T10:44:21;2.9;;;2.6;;
27357;SDS011;14831;50.474;7.616;2022-10-31T10:49:24;3.4;;;2.6;;
27357;SDS011;14831;50.474;7.616;2022-10-31T10:54:36;3.4;;;2.6;;
27357;SDS011;14831;50.474;7.616;2022-10-31T10:59:22;3.4;;;2.6;;
27357;SDS011;14831;50.474;7.616;2022-10-31T11:04:28;3.4;;;2.6;;
27357;SDS011;14831;50.474;7.616;2022-10-31T11:09:21;3.4;;;2.6;;
27357;SDS011;14831;50.474;7.616;2022-10-31T11:14:21;3.4;;;2.6;;
27357;SDS011;14831;50.474;7.616;2022-10-31T11:19:23;2.9;;;2.4;;
27357;SDS011;14831;50.474;7.616;2022-10-31T11:24:23;2.9;;;2.4;;
27357;SDS011;14831;50.474;7.616;2022-10-31T11:29:23;2.9;;;2.4;;
27357;SDS011;14831;50.474;7.616;2022-10-31T11:34:28;2.9;;;2.4;;
27357;SDS011;14831;50.474;7.616;2022-10-31T11:39:23;2.9;;;2.4;;
27357;SDS011;14831;50.474;7.616;2022-10-31T11:44:23;2.9;;;2.4;;
27357;SDS011;14831;50.474;7.616;2022-10-31T11:49:28;4.1;;;2.7;;
27357;SDS011;14831;50.474;7.616;2022-10-31T11:54:24;4.1;;;2.7;;
27357;SDS011;14831;50.474;7.616;2022-10-31T11:59:25;4.1;;;2.7;;
27357;SDS011;14831;50.474;7.616;2022-10-31T12:04:31;4.1;;;2.7;;
27357;SDS011;14831;50.474;7.616;2022-10-31T12:09:23;4.1;;;2.7;;
27357;SDS011;14831;50.474;7.616;2022-10-31T12:14:33;4.1;;;2.7;;
27357;SDS011;14831;50.474;7.616;2022-10-31T12:19:30;5.2;;;2.8;;
27357;SDS011;14831;50.474;7.616;2022-10-31T12:25:33;5.2;;;2.8;;
27357;SDS011;14831;50.474;7.616;2022-10-31T12:29:33;5.2;;;2.8;;
27357;SDS011;14831;50.474;7.616;2022-10-31T12:34:37;5.2;;;2.8;;
27357;SDS011;14831;50.474;7.616;2022-10-31T12:39:32;5.2;;;2.8;;
27357;SDS011;14831;50.474;7.616;2022-10-31T12:44:42;5.2;;;2.8;;
27357;SDS011;14831;50.474;7.616;2022-10-31T12:49:34;4.4;;;2.6;;
27357;SDS011;14831;50.474;7.616;2022-10-31T12:54:35;4.4;;;2.6;;
27357;SDS011;14831;50.474;7.616;2022-10-31T12:59:25;4.4;;;2.6;;
27357;SDS011;14831;50.474;7.616;2022-10-31T13:04:30;4.4;;;2.6;;
27357;SDS011;14831;50.474;7.616;2022-10-31T13:09:25;4.4;;;2.6;;
27357;SDS011;14831;50.474;7.616;2022-10-31T13:14:25;4.4;;;2.6;;
27357;SDS011;14831;50.474;7.616;2022-10-31T13:19:25;4.2;;;2.9;;
27357;SDS011;14831;50.474;7.616;2022-10-31T13:24:25;4.2;;;2.9;;
27357;SDS011;14831;50.474;7.616;2022-10-31T13:29:24;4.2;;;2.9;;
27357;SDS011;14831;50.474;7.616;2022-10-31T13:34:26;4.2;;;2.9;;
27357;SDS011;14831;50.474;7.616;2022-10-31T13:39:28;4.2;;;2.9;;
27357;SDS011;14831;50.474;7.616;2022-10-31T13:44:24;4.2;;;2.9;;
27357;SDS011;14831;50.474;7.616;2022-10-31T13:49:25;5.8;;;3.4;;
27357;SDS011;14831;50.474;7.616;2022-10-31T13:54:23;5.8;;;3.4;;
27357;SDS011;14831;50.474;7.616;2022-10-31T13:59:23;5.8;;;3.4;;
27357;SDS011;14831;50.474;7.616;2022-10-31T14:04:23;5.8;;;3.4;;
27357;SDS011;14831;50.474;7.616;2022-10-31T14:09:27;5.8;;;3.4;;
27357;SDS011;14831;50.474;7.616;2022-10-31T14:14:25;5.8;;;3.4;;
27357;SDS011;14831;50.474;7.616;2022-10-31T14:19:22;6.8;;;4.1;;
27357;SDS011;14831;50.474;7.616;2022-10-31T14:24:33;6.8;;;4.1;;
27357;SDS011;14831;50.474;7.616;2022-10-31T14:29:24;6.8;;;4.1;;
27357;SDS011;14831;50.474;7.616;2022-10-31T14:34:25;6.8;;;4.1;;
27357;SDS011;14831;50.474;7.616;2022-10-31T14:39:25;6.8;;;4.1;;
27357;SDS011;14831;50.474;7.616;2022-10-31T14:45:37;6.8;;;4.1;;
27357;SDS011;14831;50.474;7.616;2022-10-31T14:49:34;6.9;;;4.5;;
27357;SDS011;14831;50.474;7.616;2022-10-31T14:54:27;6.9;;;4.5;;
27357;SDS011;14831;50.474;7.616;2022-10-31T14:59:25;6.9;;;4.5;;
27357;SDS011;14831;50.474;7.616;2022-10-31T15:04:23;6.9;;;4.5;;
27357;SDS011;14831;50.474;7.616;2022-10-31T15:09:23;6.9;;;4.5;;
27357;SDS011;14831;50.474;7.616;2022-10-31T15:14:24;6.9;;;4.5;;
27357;SDS011;14831;50.474;7.616;2022-10-31T15:19:24;6.2;;;4.0;;
27357;SDS011;14831;50.474;7.616;2022-10-31T15:24:24;6.2;;;4.0;;
27357;SDS011;14831;50.474;7.616;2022-10-31T15:29:22;6.2;;;4.0;;
27357;SDS011;14831;50.474;7.616;2022-10-31T15:34:26;6.2;;;4.0;;
27357;SDS011;14831;50.474;7.616;2022-10-31T15:39:21;6.2;;;4.0;;
27357;SDS011;14831;50.474;7.616;2022-10-31T15:44:24;6.2;;;4.0;;
27357;SDS011;14831;50.474;7.616;2022-10-31T15:49:30;5.0;;;3.3;;
27357;SDS011;14831;50.474;7.616;2022-10-31T15:54:21;5.0;;;3.3;;
27357;SDS011;14831;50.474;7.616;2022-10-31T15:59:23;5.0;;;3.3;;
27357;SDS011;14831;50.474;7.616;2022-10-31T16:04:22;5.0;;;3.3;;
27357;SDS011;14831;50.474;7.616;2022-10-31T16:09:23;5.0;;;3.3;;
27357;SDS011;14831;50.474;7.616;2022-10-31T16:14:24;5.0;;;3.3;;
27357;SDS011;14831;50.474;7.616;2022-10-31T16:19:23;3.9;;;3.5;;
27357;SDS011;14831;50.474;7.616;2022-10-31T16:24:25;3.9;;;3.5;;
27357;SDS011;14831;50.474;7.616;2022-10-31T16:29:26;3.9;;;3.5;;
27357;SDS011;14831;50.474;7.616;2022-10-31T16:34:22;3.9;;;3.5;;
27357;SDS011;14831;50.474;7.616;2022-10-31T16:39:21;3.9;;;3.5;;
27357;SDS011;14831;50.474;7.616;2022-10-31T16:44:23;3.9;;;3.5;;
27357;SDS011;14831;50.474;7.616;2022-10-31T16:49:21;3.6;;;3.2;;
27357;SDS011;14831;50.474;7.616;2022-10-31T16:54:21;3.6;;;3.2;;
27357;SDS011;14831;50.474;7.616;2022-10-31T16:59:21;3.6;;;3.2;;
27357;SDS011;14831;50.474;7.616;2022-10-31T17:04:21;3.6;;;3.2;;
27357;SDS011;14831;50.474;7.616;2022-10-31T17:09:21;3.6;;;3.2;;
27357;SDS011;14831;50.474;7.616;2022-10-31T17:14:21;3.6;;;3.2;;
27357;SDS011;14831;50.474;7.616;2022-10-31T17:19:21;4.1;;;3.2;;
27357;SDS011;14831;50.474;7.616;2022-10-31T17:24:21;4.1;;;3.2;;
27357;SDS011;14831;50.474;7.616;2022-10-31T17:29:21;4.1;;;3.2;;
27357;SDS011;14831;50.474;7.616;2022-10-31T17:34:22;4.1;;;3.2;;
27357;SDS011;14831;50.474;7.616;2022-10-31T17:39:21;4.1;;;3.2;;
27357;SDS011;14831;50.474;7.616;2022-10-31T17:44:21;4.1;;;3.2;;
27357;SDS011;14831;50.474;7.616;2022-10-31T17:49:21;3.7;;;3.0;;
27357;SDS011;14831;50.474;7.616;2022-10-31T17:54:21;3.7;;;3.0;;
27357;SDS011;14831;50.474;7.616;2022-10-31T17:59:21;3.7;;;3.0;;
27357;SDS011;14831;50.474;7.616;2022-10-31T18:04:21;3.7;;;3.0;;
27357;SDS011;14831;50.474;7.616;2022-10-31T18:09:21;3.7;;;3.0;;
27357;SDS011;14831;50.474;7.616;2022-10-31T18:14:21;3.7;;;3.0;;
27357;SDS011;14831;50.474;7.616;2022-10-31T18:19:21;3.5;;;3.2;;
27357;SDS011;14831;50.474;7.616;2022-10-31T18:24:21;3.5;;;3.2;;
27357;SDS011;14831;50.474;7.616;2022-10-31T18:29:21;3.5;;;3.2;;
27357;SDS011;14831;50.474;7.616;2022-10-31T18:34:21;3.5;;;3.2;;
27357;SDS011;14831;50.474;7.616;2022-10-31T18:39:21;3.5;;;3.2;;
27357;SDS011;14831;50.474;7.616;2022-10-31T18:44:21;3.5;;;3.2;;
27357;SDS011;14831;50.474;7.616;2022-10-31T18:49:21;3.5;;;2.8;;
27357;SDS011;14831;50.474;7.616;2022-10-31T18:54:21;3.5;;;2.8;;
27357;SDS011;14831;50.474;7.616;2022-10-31T18:59:21;3.5;;;2.8;;
27357;SDS011;14831;50.474;7.616;2022-10-31T19:04:21;3.5;;;2.8;;
27357;SDS011;14831;50.474;7.616;2022-10-31T19:09:21;3.5;;;2.8;;
27357;SDS011;14831;50.474;7.616;2022-10-31T19:14:21;3.5;;;2.8;;
27357;SDS011;14831;50.474;7.616;2022-10-31T19:19:21;2.8;;;2.5;;
27357;SDS011;14831;50.474;7.616;2022-10-31T19:24:21;2.8;;;2.5;;
27357;SDS011;14831;50.474;7.616;2022-10-31T19:29:21;2.8;;;2.5;;
27357;SDS011;14831;50.474;7.616;2022-10-31T19:34:21;2.8;;;2.5;;
27357;SDS011;14831;50.474;7.616;2022-10-31T19:39:21;2.8;;;2.5;;
27357;SDS011;14831;50.474;7.616;2022-10-31T19:44:21;2.8;;;2.5;;
27357;SDS011;14831;50.474;7.616;2022-10-31T19:49:21;2.6;;;2.4;;
27357;SDS011;14831;50.474;7.616;2022-10-31T19:54:21;2.6;;;2.4;;
27357;SDS011;14831;50.474;7.616;2022-10-31T19:59:21;2.6;;;2.4;;
27357;SDS011;14831;50.474;7.616;2022-10-31T20:04:21;2.6;;;2.4;;
27357;SDS011;14831;50.474;7.616;2022-10-31T20:09:21;2.6;;;2.4;;
27357;SDS011;14831;50.474;7.616;2022-10-31T20:14:21;2.6;;;2.4;;
27357;SDS011;14831;50.474;7.616;2022-10-31T20:19:21;2.6;;;2.4;;
27357;SDS011;14831;50.474;7.616;2022-10-31T20:24:21;2.6;;;2.4;;
27357;SDS011;14831;50.474;7.616;2022-10-31T20:29:21;2.6;;;2.4;;
27357;SDS011;14831;50.474;7.616;2022-10-31T20:34:21;2.6;;;2.4;;
27357;SDS011;14831;50.474;7.616;2022-10-31T20:39:21;2.6;;;2.4;;
27357;SDS011;14831;50.474;7.616;2022-10-31T20:44:21;2.6;;;2.4;;
27357;SDS011;14831;50.474;7.616;2022-10-31T20:49:21;2.5;;;2.3;;
27357;SDS011;14831;50.474;7.616;2022-10-31T20:54:21;2.5;;;2.3;;
27357;SDS011;14831;50.474;7.616;2022-10-31T20:59:21;2.5;;;2.3;;
27357;SDS011;14831;50.474;7.616;2022-10-31T21:04:21;2.5;;;2.3;;
27357;SDS011;14831;50.474;7.616;2022-10-31T21:09:21;2.5;;;2.3;;
27357;SDS011;14831;50.474;7.616;2022-10-31T21:14:21;2.5;;;2.3;;
27357;SDS011;14831;50.474;7.616;2022-10-31T21:19:21;2.4;;;2.2;;
27357;SDS011;14831;50.474;7.616;2022-10-31T21:24:21;2.4;;;2.2;;
27357;SDS011;14831;50.474;7.616;2022-10-31T21:29:21;2.4;;;2.2;;
27357;SDS011;14831;50.474;7.616;2022-10-31T21:34:21;2.4;;;2.2;;
27357;SDS011;14831;50.474;7.616;2022-10-31T21:39:21;2.4;;;2.2;;
27357;SDS011;14831;50.474;7.616;2022-10-31T21:44:21;2.4;;;2.2;;
27357;SDS011;14831;50.474;7.616;2022-10-31T21:49:21;2.4;;;2.2;;
27357;SDS011;14831;50.474;7.616;2022-10-31T21:54:21;2.4;;;2.2;;
27357;SDS011;14831;50.474;7.616;2022-10-31T21:59:21;2.4;;;2.2;;
27357;SDS011;14831;50.474;7.616;2022-10-31T22:04:21;2.4;;;2.2;;
27357;SDS011;14831;50.474;7.616;2022-10-31T22:09:21;2.4;;;2.2;;
27357;SDS011;14831;50.474;7.616;2022-10-31T22:14:21;2.4;;;2.2;;
27357;SDS011;14831;50.474;7.616;2022-10-31T22:19:21;2.0;;;1.9;;
27357;SDS011;14831;50.474;7.616;2022-10-31T22:24:21;2.0;;;1.9;;
27357;SDS011;14831;50.474;7.616;2022-10-31T22:29:21;2.0;;;1.9;;
27357;SDS011;14831;50.474;7.616;2022-10-31T22:34:21;2.0;;;1.9;;
27357;SDS011;14831;50.474;7.616;2022-10-31T22:39:21;2.0;;;1.9;;
27357;SDS011;14831;50.474;7.616;2022-10-31T22:44:21;2.0;;;1.9;;
27357;SDS011;14831;50.474;7.616;2022-10-31T22:49:21;2.2;;;2.0;;
27357;SDS011;14831;50.474;7.616;2022-10-31T22:54:21;2.2;;;2.0;;
27357;SDS011;14831;50.474;7.616;2022-10-31T22:59:21;2.2;;;2.0;;
27357;SDS011;14831;50.474;7.616;2022-10-31T23:04:21;2.2;;;2.0;;
27357;SDS011;14831;50.474;7.616;2022-10-31T23:09:21;2.2;;;2.0;;
27357;SDS011;14831;50.474;7.616;2022-10-31T23:14:21;2.2;;;2.0;;
27357;SDS011;14831;50.474;7.616;2022-10-31T23:19:24;2.2;;;2.0;;
27357;SDS011;14831;50.474;7.616;2022-10-31T23:24:23;2.2;;;2.0;;
27357;SDS011;14831;50.474;7.616;2022-10-31T23:29:21;2.2;;;2.0;;
27357;SDS011;14831;50.474;7.616;2022-10-31T23:34:21;2.2;;;2.0;;
27357;SDS011;14831;50.474;7.616;2022-10-31T23:39:21;2.2;;;2.0;;
27357;SDS011;14831;50.474;7.616;2022-10-31T23:44:21;2.2;;;2.0;;
27357;SDS011;14831;50.474;7.616;2022-10-31T23:49:21;2.1;;;2.0;;
27357;SDS011;14831;50.474;7.616;2022-10-31T23:54:21;2.1;;;2.0;;
27357;SDS011;14831;50.474;7.616;2022-10-31T23:59:21;2.1;;;2.0;;
